Time;durP1;ratioP1;P1;durP2;ratioP2;P2;SDS_P1;SDS_P2;PMS_P1;PMS_P2;Temp;Humidity;BMP_temperature;BMP_pressure;BME280_temperature;BME280_humidity;BME280_pressure;Samples;Min_cycle;Max_cycle;Signal;HPM_P1;HPM_P2
2023/05/01 00:02:14;;;;;;;5.95;1.70;;;8.40;99.90;;;;;;12478858;28;20072;-40
2023/05/01 00:08:15;;;;;;;8.35;1.88;;;8.60;99.90;;;;;;12483309;28;20065;-40
2023/05/01 00:14:17;;;;;;;8.05;2.10;;;9.20;99.90;;;;;;12477875;28;20060;-40
2023/05/01 00:20:19;;;;;;;5.93;1.83;;;9.20;99.90;;;;;;12485574;28;20508;-40
2023/05/01 00:26:21;;;;;;;4.53;2.10;;;9.20;99.90;;;;;;12475977;28;20456;-40
2023/05/01 00:32:23;;;;;;;5.35;2.33;;;9.00;99.90;;;;;;12483164;28;20567;-39
2023/05/01 00:38:24;;;;;;;7.60;3.10;;;8.70;99.90;;;;;;12486866;28;21034;-39
2023/05/01 00:44:26;;;;;;;7.57;3.17;;;8.60;99.90;;;;;;12480562;28;20042;-39
2023/05/01 00:50:29;;;;;;;8.43;3.38;;;8.70;99.90;;;;;;12459902;28;20050;-41
2023/05/01 00:56:31;;;;;;;6.40;3.00;;;8.60;99.90;;;;;;12465081;28;20136;-40
2023/05/01 01:02:33;;;;;;;7.07;3.20;;;8.40;99.90;;;;;;12477150;28;20144;-40
2023/05/01 01:08:42;;;;;;;7.25;3.55;;;8.10;99.90;;;;;;12490408;28;20053;-40
2023/05/01 01:14:49;;;;;;;10.82;3.65;;;8.10;99.90;;;;;;12477830;28;20041;-39
2023/05/01 01:20:56;;;;;;;13.77;3.75;;;8.00;99.90;;;;;;12485273;28;20072;-39
2023/05/01 01:27:32;;;;;;;7.25;3.17;;;7.90;99.90;;;;;;12488686;28;20045;-40
2023/05/01 01:33:47;;;;;;;8.18;2.97;;;7.80;99.90;;;;;;12487916;28;20099;-40
2023/05/01 01:39:54;;;;;;;11.13;3.40;;;8.00;99.90;;;;;;12495091;28;20501;-40
2023/05/01 01:46:00;;;;;;;7.78;3.13;;;7.70;99.90;;;;;;12484194;28;20176;-39
2023/05/01 01:52:04;;;;;;;6.75;3.25;;;8.10;99.90;;;;;;12489540;28;20159;-40
2023/05/01 01:58:09;;;;;;;8.98;3.58;;;7.70;99.90;;;;;;12460585;28;20829;-38
2023/05/01 02:04:14;;;;;;;7.60;3.25;;;7.10;99.90;;;;;;12468942;28;20057;-39
2023/05/01 02:10:21;;;;;;;6.50;2.90;;;7.40;99.90;;;;;;12455992;28;20038;-40
2023/05/01 02:16:24;;;;;;;8.10;3.00;;;7.50;99.90;;;;;;12449914;28;20095;-40
2023/05/01 02:22:28;;;;;;;7.13;3.13;;;7.60;99.90;;;;;;12465682;28;20880;-41
2023/05/01 02:28:33;;;;;;;11.07;3.25;;;7.70;99.90;;;;;;12440147;28;20049;-40
2023/05/01 02:34:34;;;;;;;6.03;3.20;;;7.80;99.90;;;;;;12436508;28;20045;-39
2023/05/01 02:40:38;;;;;;;8.38;3.22;;;7.60;99.90;;;;;;12462959;28;20053;-40
2023/05/01 02:46:42;;;;;;;5.07;2.83;;;7.40;99.90;;;;;;12459471;28;20513;-39
2023/05/01 02:52:46;;;;;;;6.03;2.65;;;7.40;99.90;;;;;;12467264;28;20045;-40
2023/05/01 02:58:52;;;;;;;5.85;3.17;;;7.70;99.90;;;;;;12466464;28;20561;-40
2023/05/01 03:04:53;;;;;;;6.55;2.90;;;7.80;99.90;;;;;;12453396;28;20064;-40
2023/05/01 03:10:55;;;;;;;5.13;2.70;;;7.60;99.90;;;;;;12473375;28;20053;-40
2023/05/01 03:16:57;;;;;;;7.82;2.75;;;7.60;99.90;;;;;;12468860;28;20447;-40
2023/05/01 03:22:59;;;;;;;8.35;2.92;;;7.20;99.90;;;;;;12482061;28;20053;-39
2023/05/01 03:29:01;;;;;;;6.70;2.92;;;6.50;99.90;;;;;;12489035;28;20045;-39
2023/05/01 03:35:04;;;;;;;4.88;2.65;;;6.60;99.90;;;;;;12470008;28;20072;-39
2023/05/01 03:41:07;;;;;;;11.90;3.13;;;6.70;99.90;;;;;;12485533;28;20072;-39
2023/05/01 03:47:09;;;;;;;7.20;2.70;;;6.80;99.90;;;;;;12487198;28;20125;-39
2023/05/01 03:53:12;;;;;;;7.25;3.08;;;6.80;99.90;;;;;;12481065;28;20056;-39
2023/05/01 03:59:14;;;;;;;6.30;2.22;;;7.20;99.90;;;;;;12501796;28;20049;-38
2023/05/01 04:05:17;;;;;;;7.00;3.20;;;7.30;99.90;;;;;;12488036;28;20513;-39
2023/05/01 04:11:20;;;;;;;5.53;3.05;;;7.20;99.90;;;;;;12485174;28;20045;-39
2023/05/01 04:17:22;;;;;;;6.13;2.83;;;6.60;99.90;;;;;;12483316;28;20092;-39
2023/05/01 04:23:23;;;;;;;7.40;2.72;;;6.90;99.90;;;;;;12465382;28;20062;-39
2023/05/01 04:29:25;;;;;;;9.60;3.00;;;7.10;99.90;;;;;;12451254;28;20068;-39
2023/05/01 04:35:27;;;;;;;7.03;2.72;;;7.30;99.90;;;;;;12496393;28;20064;-39
2023/05/01 04:41:29;;;;;;;4.70;2.85;;;7.30;99.90;;;;;;12488099;28;20041;-40
2023/05/01 04:47:31;;;;;;;6.57;2.78;;;7.20;99.90;;;;;;12494197;28;20098;-39
2023/05/01 04:53:32;;;;;;;6.07;2.35;;;7.90;99.90;;;;;;12482775;28;20045;-39
2023/05/01 04:59:34;;;;;;;7.38;2.50;;;8.90;99.90;;;;;;12487618;28;20041;-39
2023/05/01 05:05:36;;;;;;;6.90;2.83;;;9.90;99.90;;;;;;12474016;28;20050;-39
2023/05/01 05:11:38;;;;;;;4.13;2.22;;;10.70;99.90;;;;;;12479643;28;20168;-40
2023/05/01 05:17:40;;;;;;;5.35;2.17;;;11.20;99.90;;;;;;12468609;28;20049;-40
2023/05/01 05:23:42;;;;;;;6.95;2.35;;;12.00;99.90;;;;;;12490341;28;20134;-39
2023/05/01 05:29:43;;;;;;;4.03;2.00;;;12.40;99.90;;;;;;12474274;28;20041;-40
2023/05/01 05:35:45;;;;;;;4.40;2.10;;;12.40;99.90;;;;;;12477363;28;20099;-40
2023/05/01 05:41:48;;;;;;;4.65;2.25;;;12.30;99.90;;;;;;12485250;28;20049;-39
2023/05/01 05:47:50;;;;;;;5.47;2.28;;;12.20;99.90;;;;;;12493633;28;20512;-39
2023/05/01 05:53:51;;;;;;;4.22;2.10;;;12.30;99.90;;;;;;12473066;28;20052;-40
2023/05/01 05:59:53;;;;;;;4.63;2.40;;;13.60;99.90;;;;;;12471107;28;20139;-39
2023/05/01 06:05:56;;;;;;;5.97;2.35;;;13.20;99.90;;;;;;12478033;28;20171;-40
2023/05/01 06:11:58;;;;;;;5.65;2.80;;;12.40;99.90;;;;;;12460257;28;20140;-40
2023/05/01 06:18:00;;;;;;;6.07;2.92;;;11.90;99.90;;;;;;12448580;28;20049;-39
2023/05/01 06:24:02;;;;;;;7.30;2.60;;;11.70;99.90;;;;;;12479883;28;20045;-39
2023/05/01 06:30:05;;;;;;;5.72;2.42;;;11.70;99.90;;;;;;12485062;28;20042;-39
2023/05/01 06:36:07;;;;;;;5.55;2.40;;;12.00;99.90;;;;;;12462943;28;20057;-39
2023/05/01 06:42:11;;;;;;;5.38;2.58;;;11.90;99.90;;;;;;12468275;28;20045;-40
2023/05/01 06:48:12;;;;;;;5.73;2.60;;;12.00;99.90;;;;;;12485496;28;20045;-39
2023/05/01 06:54:14;;;;;;;6.68;3.03;;;11.90;99.90;;;;;;12453292;28;20057;-40
2023/05/01 07:00:17;;;;;;;5.57;2.33;;;12.20;99.90;;;;;;12485776;28;20556;-40
2023/05/01 07:06:19;;;;;;;7.25;2.78;;;12.50;99.90;;;;;;12471734;28;20057;-40
2023/05/01 07:12:22;;;;;;;6.07;2.60;;;12.70;99.90;;;;;;12485574;28;20037;-40
2023/05/01 07:18:24;;;;;;;8.20;3.47;;;12.90;99.90;;;;;;12480245;28;20045;-39
2023/05/01 07:24:25;;;;;;;4.95;2.35;;;12.90;99.90;;;;;;12489035;28;20076;-40
2023/05/01 07:30:29;;;;;;;5.55;2.33;;;12.90;99.90;;;;;;12486912;28;20049;-41
2023/05/01 07:36:32;;;;;;;8.17;3.00;;;13.00;99.90;;;;;;12492719;28;20057;-40
2023/05/01 07:42:35;;;;;;;7.37;2.83;;;12.80;99.90;;;;;;12469729;28;20053;-41
2023/05/01 07:48:36;;;;;;;4.68;2.38;;;13.20;99.90;;;;;;12492131;28;20128;-40
2023/05/01 07:54:40;;;;;;;6.38;3.08;;;13.60;99.90;;;;;;12487956;28;20045;-40
2023/05/01 08:00:45;;;;;;;7.00;2.67;;;13.80;99.90;;;;;;12474071;28;20068;-40
2023/05/01 08:06:51;;;;;;;5.18;2.30;;;14.10;99.90;;;;;;12501160;28;20099;-40
2023/05/01 08:12:53;;;;;;;5.78;2.25;;;14.30;99.90;;;;;;12484601;28;20041;-41
2023/05/01 08:18:55;;;;;;;4.82;1.92;;;14.50;99.90;;;;;;12495347;28;20049;-40
2023/05/01 08:24:57;;;;;;;5.80;2.17;;;14.90;99.90;;;;;;12502601;28;20132;-41
2023/05/01 08:30:58;;;;;;;4.10;1.80;;;15.20;99.90;;;;;;12509891;28;20053;-41
2023/05/01 08:37:01;;;;;;;6.65;2.40;;;15.70;99.90;;;;;;12495185;28;20111;-41
2023/05/01 08:43:03;;;;;;;7.35;2.10;;;16.00;99.90;;;;;;12476845;28;20064;-41
2023/05/01 08:49:08;;;;;;;7.15;2.60;;;16.30;99.90;;;;;;12483614;28;20068;-41
2023/05/01 08:55:12;;;;;;;6.30;2.13;;;15.90;99.90;;;;;;12481889;28;20064;-41
2023/05/01 09:01:16;;;;;;;4.50;2.05;;;16.30;99.90;;;;;;12483010;28;20049;-40
2023/05/01 09:07:18;;;;;;;6.40;2.13;;;16.60;99.90;;;;;;12487144;28;20049;-41
2023/05/01 09:13:20;;;;;;;6.22;1.88;;;16.90;99.90;;;;;;12484995;28;20048;-41
2023/05/01 09:19:21;;;;;;;5.85;2.28;;;17.30;99.90;;;;;;12493624;28;20374;-41
2023/05/01 09:25:23;;;;;;;3.28;2.13;;;17.00;99.90;;;;;;12490894;28;20516;-41
2023/05/01 09:31:31;;;;;;;5.60;2.20;;;17.00;99.90;;;;;;12486997;28;20068;-41
2023/05/01 09:37:33;;;;;;;5.78;2.25;;;17.20;99.90;;;;;;12487036;28;20042;-40
2023/05/01 09:43:35;;;;;;;4.78;2.20;;;17.60;99.90;;;;;;12486305;28;20045;-40
2023/05/01 09:49:46;;;;;;;7.22;1.90;;;17.80;99.90;;;;;;12485758;28;20107;-40
2023/05/01 09:56:00;;;;;;;5.82;2.20;;;17.50;99.90;;;;;;12507601;28;20437;-41
2023/05/01 10:02:02;;;;;;;;;;;17.50;99.90;;;;;;12497135;28;20401;-40
2023/05/01 10:08:09;;;;;;;4.57;1.70;;;17.40;99.90;;;;;;12496585;28;19924;-40
2023/05/01 10:14:12;;;;;;;5.82;2.00;;;17.30;99.90;;;;;;12453150;28;20041;-41
2023/05/01 10:20:14;;;;;;;10.05;2.08;;;18.00;99.90;;;;;;12494893;28;21038;-40
2023/05/01 10:26:17;;;;;;;2.95;1.60;;;18.70;99.90;;;;;;12493852;28;20038;-40
2023/05/01 10:32:20;;;;;;;3.42;1.90;;;19.20;99.90;;;;;;12489827;28;20048;-40
2023/05/01 10:38:29;;;;;;;4.60;1.40;;;19.00;99.90;;;;;;12472097;28;20041;-41
2023/05/01 10:44:33;;;;;;;4.18;1.58;;;19.60;99.90;;;;;;12462255;28;20065;-41
2023/05/01 10:51:21;;;;;;;3.75;1.35;;;19.60;99.90;;;;;;12508085;28;20128;-41
2023/05/01 10:57:43;;;;;;;4.53;1.40;;;19.60;99.90;;;;;;12478012;28;20501;-41
2023/05/01 11:03:45;;;;;;;4.32;1.65;;;20.00;99.90;;;;;;12472806;28;20046;-42
2023/05/01 11:09:57;;;;;;;6.45;1.67;;;19.60;99.90;;;;;;12480455;28;20042;-41
2023/05/01 11:16:44;;;;;;;4.82;1.50;;;19.50;99.90;;;;;;12494659;28;20064;-42
2023/05/01 11:22:50;;;;;;;3.83;1.13;;;19.30;99.90;;;;;;12459987;28;20125;-40
2023/05/01 11:28:54;;;;;;;2.85;0.88;;;19.70;99.90;;;;;;12501046;28;20052;-40
2023/05/01 11:34:56;;;;;;;1.48;0.70;;;20.00;99.90;;;;;;12491529;28;20132;-41
2023/05/01 11:41:00;;;;;;;4.20;1.10;;;20.30;99.90;;;;;;12475095;28;20053;-41
2023/05/01 11:47:02;;;;;;;2.85;1.15;;;20.40;99.90;;;;;;12487625;28;20060;-40
2023/05/01 11:53:10;;;;;;;1.80;0.82;;;19.90;99.90;;;;;;12510104;28;20040;-40
2023/05/01 11:59:15;;;;;;;2.47;0.80;;;20.10;99.90;;;;;;12494208;28;20053;-40
2023/05/01 12:05:17;;;;;;;1.80;0.88;;;20.50;99.90;;;;;;12490177;28;20056;-41
2023/05/01 12:11:19;;;;;;;3.50;1.20;;;20.60;99.90;;;;;;12490018;28;20706;-41
2023/05/01 12:17:21;;;;;;;1.30;0.75;;;20.50;99.90;;;;;;12476966;28;20084;-41
2023/05/01 12:23:31;;;;;;;2.17;0.90;;;20.10;99.90;;;;;;12487409;28;20041;-42
2023/05/01 12:29:40;;;;;;;2.83;1.10;;;20.00;99.90;;;;;;12458986;28;20140;-41
2023/05/01 12:35:46;;;;;;;3.17;1.13;;;;;;;;;;12470365;28;20132;-41
2023/05/01 12:41:48;;;;;;;1.50;0.70;;;19.60;99.90;;;;;;12487242;28;20033;-42
2023/05/01 12:47:50;;;;;;;3.40;0.70;;;19.70;99.90;;;;;;12485853;28;20094;-41
2023/05/01 12:53:56;;;;;;;2.53;0.80;;;19.30;99.90;;;;;;12509585;28;20384;-40
2023/05/01 13:00:00;;;;;;;2.53;1.23;;;19.40;99.90;;;;;;12492094;28;20045;-40
2023/05/01 13:06:04;;;;;;;2.35;1.00;;;19.10;99.90;;;;;;12477001;28;20084;-41
2023/05/01 13:12:07;;;;;;;2.78;1.02;;;18.90;99.90;;;;;;12472998;28;21398;-40
2023/05/01 13:18:09;;;;;;;2.20;0.70;;;18.80;99.90;;;;;;12479328;28;20118;-41
2023/05/01 13:24:12;;;;;;;1.50;0.80;;;19.10;99.90;;;;;;12492826;28;20080;-41
2023/05/01 13:30:15;;;;;;;1.97;0.80;;;19.20;99.90;;;;;;12459182;28;20045;-42
2023/05/01 13:36:17;;;;;;;1.85;0.80;;;19.70;99.90;;;;;;12476201;28;20125;-40
2023/05/01 13:42:27;;;;;;;3.78;0.93;;;20.40;99.90;;;;;;12461656;28;20049;-40
2023/05/01 13:48:30;;;;;;;2.67;0.95;;;20.60;99.90;;;;;;12464577;28;20053;-41
2023/05/01 13:54:32;;;;;;;1.80;0.88;;;20.80;99.90;;;;;;12476922;28;20049;-40
2023/05/01 14:00:35;;;;;;;1.63;0.90;;;20.90;99.90;;;;;;12455474;28;20049;-41
2023/05/01 14:06:42;;;;;;;1.67;0.77;;;21.10;99.90;;;;;;12492386;28;20110;-40
2023/05/01 14:12:44;;;;;;;1.83;0.90;;;21.40;99.90;;;;;;12485744;28;20145;-41
2023/05/01 14:18:47;;;;;;;1.33;0.80;;;21.00;99.90;;;;;;12443537;28;20080;-41
2023/05/01 14:24:49;;;;;;;2.20;1.00;;;20.80;99.90;;;;;;12449694;28;20053;-41
2023/05/01 14:30:53;;;;;;;5.53;1.00;;;21.20;99.90;;;;;;12469479;28;20103;-41
2023/05/01 14:36:55;;;;;;;2.35;1.00;;;21.10;99.90;;;;;;12468362;28;20046;-40
2023/05/01 14:42:57;;;;;;;2.58;0.85;;;20.50;99.90;;;;;;12465916;28;20045;-41
2023/05/01 14:49:00;;;;;;;3.50;0.90;;;20.10;99.90;;;;;;12487785;28;20042;-40
2023/05/01 14:55:03;;;;;;;3.30;0.80;;;20.50;99.90;;;;;;12483037;28;20044;-40
2023/05/01 15:01:05;;;;;;;2.33;0.80;;;20.90;99.90;;;;;;12485125;28;20046;-40
2023/05/01 15:07:07;;;;;;;3.30;1.13;;;21.10;99.90;;;;;;12483288;28;20045;-39
2023/05/01 15:13:09;;;;;;;3.55;0.90;;;20.40;99.90;;;;;;12465800;28;20402;-40
2023/05/01 15:19:11;;;;;;;2.47;0.98;;;20.90;99.90;;;;;;12446635;28;20057;-38
2023/05/01 15:25:13;;;;;;;2.97;0.93;;;21.00;99.90;;;;;;12460274;28;20041;-38
2023/05/01 15:31:17;;;;;;;1.38;0.60;;;21.50;99.90;;;;;;12479322;28;20147;-37
2023/05/01 15:37:18;;;;;;;4.13;1.23;;;21.10;99.90;;;;;;12469984;28;20041;-37
2023/05/01 15:43:22;;;;;;;2.95;0.60;;;20.10;99.90;;;;;;12462401;28;20982;-37
2023/05/01 15:49:24;;;;;;;2.88;0.82;;;19.20;99.90;;;;;;12469287;28;20049;-38
2023/05/01 15:55:25;;;;;;;1.42;0.80;;;18.80;99.90;;;;;;12454086;28;20128;-38
2023/05/01 16:01:27;;;;;;;3.45;0.77;;;19.30;99.90;;;;;;12469328;28;20520;-38
2023/05/01 16:07:29;;;;;;;1.77;0.80;;;19.70;99.90;;;;;;12462550;28;20064;-39
2023/05/01 16:13:39;;;;;;;1.85;0.80;;;19.30;99.90;;;;;;12457740;28;20107;-37
2023/05/01 16:19:41;;;;;;;1.15;0.70;;;18.70;99.90;;;;;;12484806;28;20050;-37
2023/05/01 16:25:43;;;;;;;2.50;0.82;;;18.60;99.90;;;;;;12490017;28;20045;-37
2023/05/01 16:31:46;;;;;;;2.00;0.80;;;18.40;99.90;;;;;;12486773;28;20091;-38
2023/05/01 16:37:48;;;;;;;2.57;0.70;;;18.40;99.90;;;;;;12491939;28;20127;-37
2023/05/01 16:43:50;;;;;;;3.58;1.00;;;18.30;99.90;;;;;;12464995;28;20512;-38
2023/05/01 16:49:58;;;;;;;3.65;0.80;;;18.20;99.90;;;;;;12493690;28;20053;-38
2023/05/01 16:56:01;;;;;;;4.40;1.05;;;18.00;99.90;;;;;;12488171;28;20493;-37
2023/05/01 17:02:04;;;;;;;1.80;0.80;;;17.80;99.90;;;;;;12489110;28;20037;-37
2023/05/01 17:08:06;;;;;;;3.15;1.40;;;17.70;99.90;;;;;;12472017;28;20505;-37
2023/05/01 17:14:08;;;;;;;6.93;1.58;;;17.50;99.90;;;;;;12486219;28;20041;-38
2023/05/01 17:20:12;;;;;;;13.77;2.20;;;17.00;99.90;;;;;;12487314;28;20061;-37
2023/05/01 17:26:15;;;;;;;5.07;2.05;;;16.40;99.90;;;;;;12491443;28;20460;-38
2023/05/01 17:32:16;;;;;;;7.95;2.17;;;15.80;99.90;;;;;;12471246;28;20067;-38
2023/05/01 17:38:36;;;;;;;6.38;1.95;;;15.40;99.90;;;;;;12487222;28;20045;-37
2023/05/01 17:44:38;;;;;;;8.52;2.13;;;15.00;99.90;;;;;;12489778;28;20041;-37
2023/05/01 17:50:40;;;;;;;4.78;2.63;;;15.00;99.90;;;;;;12468911;28;20107;-37
2023/05/01 17:56:43;;;;;;;5.00;2.30;;;14.90;99.90;;;;;;12492184;28;20572;-38
2023/05/01 18:02:46;;;;;;;4.40;2.30;;;14.70;99.90;;;;;;12477164;28;20519;-37
2023/05/01 18:08:48;;;;;;;10.48;3.00;;;14.70;99.90;;;;;;12487160;28;20046;-37
2023/05/01 18:14:51;;;;;;;4.30;2.50;;;14.70;99.90;;;;;;12476849;28;20042;-37
2023/05/01 18:20:53;;;;;;;3.80;2.47;;;14.80;99.90;;;;;;12486901;28;20504;-37
2023/05/01 18:26:56;;;;;;;3.90;2.60;;;14.80;99.90;;;;;;12464577;28;20371;-37
2023/05/01 18:32:58;;;;;;;6.13;1.98;;;14.70;99.90;;;;;;12474255;28;20041;-38
2023/05/01 18:39:00;;;;;;;4.82;1.70;;;14.70;99.90;;;;;;12476806;28;20041;-37
2023/05/01 18:45:02;;;;;;;4.22;1.60;;;14.60;99.90;;;;;;12484385;28;20045;-37
2023/05/01 18:51:05;;;;;;;2.42;1.20;;;14.70;99.90;;;;;;12466405;28;20058;-37
2023/05/01 18:57:10;;;;;;;2.05;1.17;;;14.60;99.90;;;;;;12500543;28;20410;-37
2023/05/01 19:03:12;;;;;;;2.75;1.30;;;14.60;99.90;;;;;;12475956;28;20050;-37
2023/05/01 19:09:14;;;;;;;4.05;1.05;;;14.60;99.90;;;;;;12487527;28;20052;-37
2023/05/01 19:15:16;;;;;;;3.70;1.55;;;14.50;99.90;;;;;;12489208;28;20046;-37
2023/05/01 19:21:18;;;;;;;4.90;1.80;;;14.50;99.90;;;;;;12484281;28;20057;-36
2023/05/01 19:27:20;;;;;;;3.13;1.70;;;14.40;99.90;;;;;;12485554;28;20118;-37
2023/05/01 19:33:22;;;;;;;3.17;1.92;;;14.40;99.90;;;;;;12489558;28;20188;-37
2023/05/01 19:39:28;;;;;;;4.60;1.88;;;14.30;99.90;;;;;;12471775;28;20045;-36
2023/05/01 19:45:29;;;;;;;2.95;1.80;;;14.20;99.90;;;;;;12485588;28;20053;-37
2023/05/01 19:51:31;;;;;;;5.28;3.08;;;14.00;99.90;;;;;;12491551;28;20099;-36
2023/05/01 19:57:33;;;;;;;6.55;3.28;;;13.90;99.90;;;;;;12493978;28;20135;-36
2023/05/01 20:03:35;;;;;;;4.82;2.97;;;13.80;99.90;;;;;;12478369;28;20037;-36
2023/05/01 20:09:37;;;;;;;4.38;3.00;;;13.70;99.90;;;;;;12491399;28;20096;-37
2023/05/01 20:15:38;;;;;;;5.72;3.17;;;13.70;99.90;;;;;;12480628;28;20467;-37
2023/05/01 20:21:40;;;;;;;4.20;2.88;;;13.80;99.90;;;;;;12477984;28;20046;-37
2023/05/01 20:27:42;;;;;;;4.22;2.83;;;13.80;99.90;;;;;;12472119;28;20048;-37
2023/05/01 20:33:44;;;;;;;4.22;2.42;;;13.80;99.90;;;;;;12486908;28;20532;-37
2023/05/01 20:39:46;;;;;;;5.28;2.30;;;13.70;99.90;;;;;;12483692;28;20069;-37
2023/05/01 20:45:47;;;;;;;2.67;1.70;;;13.60;99.90;;;;;;12492627;28;20118;-37
2023/05/01 20:51:49;;;;;;;3.38;1.90;;;13.20;99.90;;;;;;12495532;28;20140;-37
2023/05/01 20:57:51;;;;;;;3.72;1.90;;;13.30;99.90;;;;;;12467977;28;20053;-37
2023/05/01 21:03:53;;;;;;;2.70;1.95;;;13.40;99.90;;;;;;12486959;28;20098;-37
2023/05/01 21:09:55;;;;;;;2.88;2.03;;;13.40;99.90;;;;;;12494941;28;20072;-36
2023/05/01 21:15:57;;;;;;;5.18;2.10;;;13.20;99.90;;;;;;12485061;28;20045;-37
2023/05/01 21:21:59;;;;;;;3.30;2.17;;;13.10;99.90;;;;;;12492648;28;20065;-36
2023/05/01 21:28:03;;;;;;;6.20;2.42;;;13.20;99.90;;;;;;12488795;28;20042;-36
2023/05/01 21:34:07;;;;;;;4.38;2.20;;;13.10;99.90;;;;;;12491837;28;20136;-37
2023/05/01 21:40:13;;;;;;;5.30;3.03;;;12.90;99.90;;;;;;12485048;28;20052;-37
2023/05/01 21:46:17;;;;;;;3.17;2.15;;;12.70;99.90;;;;;;12482032;28;20292;-37
2023/05/01 21:52:18;;;;;;;4.70;2.40;;;12.90;99.90;;;;;;12486286;28;20041;-36
2023/05/01 21:58:20;;;;;;;4.00;2.63;;;12.90;99.90;;;;;;12484371;28;20045;-36
2023/05/01 22:04:22;;;;;;;3.17;2.35;;;12.80;99.90;;;;;;12454247;28;20064;-37
2023/05/01 22:10:24;;;;;;;6.18;2.90;;;12.90;99.90;;;;;;12484752;28;20041;-36
2023/05/01 22:16:26;;;;;;;4.50;2.70;;;13.00;99.90;;;;;;12479333;28;20103;-37
2023/05/01 22:22:27;;;;;;;3.80;2.58;;;12.90;99.90;;;;;;12501033;28;20045;-37
2023/05/01 22:28:29;;;;;;;4.55;2.83;;;13.00;99.90;;;;;;12475942;28;20041;-37
2023/05/01 22:34:31;;;;;;;4.90;3.13;;;12.90;99.90;;;;;;12491598;28;20073;-36
2023/05/01 22:40:33;;;;;;;3.72;2.50;;;12.90;99.90;;;;;;12471419;28;20044;-36
2023/05/01 22:46:35;;;;;;;4.53;2.80;;;12.90;99.90;;;;;;12510591;28;20060;-36
2023/05/01 22:52:37;;;;;;;4.35;2.90;;;12.80;99.90;;;;;;12517741;28;20056;-36
2023/05/01 22:58:38;;;;;;;4.75;2.50;;;12.80;99.90;;;;;;12476918;28;20057;-36
2023/05/01 23:04:41;;;;;;;6.38;3.90;;;12.60;99.90;;;;;;12504622;28;20056;-37
2023/05/01 23:10:43;;;;;;;4.25;2.85;;;12.60;99.90;;;;;;12468825;28;20425;-36
2023/05/01 23:16:45;;;;;;;4.35;2.50;;;12.70;99.90;;;;;;12489447;28;20045;-37
2023/05/01 23:22:47;;;;;;;4.90;2.55;;;12.80;99.90;;;;;;12497503;28;20107;-36
2023/05/01 23:28:49;;;;;;;4.32;2.75;;;12.80;99.90;;;;;;12501310;28;20058;-36
2023/05/01 23:34:52;;;;;;;4.47;3.00;;;12.80;99.90;;;;;;12489871;28;20452;-36
2023/05/01 23:40:54;;;;;;;5.00;3.38;;;12.70;99.90;;;;;;12490012;28;20092;-37
2023/05/01 23:46:56;;;;;;;5.43;2.92;;;12.80;99.90;;;;;;12496886;28;20053;-36
2023/05/01 23:53:01;;;;;;;4.50;3.22;;;12.80;99.90;;;;;;12497325;28;20102;-37
2023/05/01 23:59:03;;;;;;;5.63;3.53;;;12.70;99.90;;;;;;12481182;28;20504;-37
